createdAt,value
2018-11-23T00:00:14.932Z,64.63
2018-11-23T00:02:44.480Z,65.27
2018-11-23T00:05:13.176Z,64.07
2018-11-23T00:07:42.264Z,72.07
2018-11-23T00:10:12.798Z,70.50
2018-11-23T00:12:41.188Z,72.83
2018-11-23T00:15:12.010Z,65.67
2018-11-23T00:17:40.475Z,79.17
2018-11-23T00:20:11.437Z,74.07
2018-11-23T00:22:39.923Z,66.60
2018-11-23T00:25:10.536Z,64.30
2018-11-23T00:27:39.192Z,68.10
2018-11-23T00:30:10.268Z,61.67
2018-11-23T00:32:38.856Z,66.07
2018-11-23T00:35:08.686Z,60.63
2018-11-23T00:37:37.108Z,63.63
2018-11-23T00:40:07.543Z,65.20
2018-11-23T00:42:35.952Z,65.47
2018-11-23T00:45:05.943Z,66.33
2018-11-23T00:47:34.401Z,76.17
2018-11-23T00:50:02.867Z,74.80
2018-11-23T00:52:31.382Z,70.67
2018-11-23T00:54:59.796Z,75.40
2018-11-23T00:57:28.187Z,72.40
2018-11-23T00:59:56.609Z,66.23
2018-11-23T01:02:25.049Z,71.43
2018-11-23T01:04:53.445Z,69.33
2018-11-23T01:07:21.921Z,76.67
2018-11-23T01:09:50.280Z,70.93
2018-11-23T01:12:18.679Z,75.17
2018-11-23T01:14:47.145Z,78.80
2018-11-23T01:17:15.544Z,79.47
2018-11-23T01:19:43.933Z,72.77
2018-11-23T01:22:12.359Z,71.37
2018-11-23T01:24:40.773Z,72.90
2018-11-23T01:27:09.297Z,74.60
2018-11-23T01:29:37.706Z,71.83
2018-11-23T01:32:06.200Z,72.77
2018-11-23T01:34:34.575Z,67.93
2018-11-23T01:37:02.966Z,76.17
2018-11-23T01:39:31.390Z,69.90
2018-11-23T01:41:59.820Z,71.57
2018-11-23T01:44:28.197Z,81.90
2018-11-23T01:46:56.708Z,70.17
2018-11-23T01:49:25.116Z,71.97
2018-11-23T01:51:53.532Z,72.57
2018-11-23T01:54:21.914Z,66.77
2018-11-23T01:56:50.317Z,77.07
2018-11-23T01:59:18.704Z,72.60
2018-11-23T02:01:47.076Z,69.40
2018-11-23T02:04:15.440Z,73.53
2018-11-23T02:06:43.911Z,71.60
2018-11-23T02:09:12.325Z,75.67
2018-11-23T02:11:40.722Z,70.80
2018-11-23T02:14:09.104Z,75.57
2018-11-23T02:16:37.591Z,82.13
2018-11-23T02:19:06.055Z,76.80
2018-11-23T02:21:34.521Z,70.50
2018-11-23T02:24:02.892Z,76.27
2018-11-23T02:26:31.358Z,77.40
2018-11-23T02:28:59.762Z,76.67
2018-11-23T02:31:32.421Z,81.50
2018-11-23T02:34:00.826Z,74.53
2018-11-23T02:36:29.237Z,77.50
2018-11-23T02:38:57.624Z,76.30
2018-11-23T02:41:26.015Z,75.83
2018-11-23T02:43:54.387Z,84.07
2018-11-23T02:46:22.777Z,74.40
2018-11-23T02:48:51.157Z,77.23
2018-11-23T02:51:19.561Z,80.30
2018-11-23T02:53:48.623Z,76.70
2018-11-23T02:56:17.141Z,76.07
2018-11-23T02:58:45.861Z,85.40
2018-11-23T03:01:14.260Z,83.83
2018-11-23T03:03:42.683Z,79.70
2018-11-23T03:06:11.047Z,77.30
2018-11-23T03:08:39.520Z,77.10
2018-11-23T03:11:07.923Z,73.47
2018-11-23T03:13:36.312Z,83.70
2018-11-23T03:16:04.690Z,80.07
2018-11-23T03:18:33.072Z,77.97
2018-11-23T03:21:01.448Z,77.20
2018-11-23T03:23:29.832Z,74.40
2018-11-23T03:25:58.248Z,85.50
2018-11-23T03:28:26.714Z,75.13
2018-11-23T03:30:55.112Z,76.40
2018-11-23T03:33:23.549Z,76.37
2018-11-23T03:35:51.945Z,73.70
2018-11-23T03:38:20.387Z,77.80
2018-11-23T03:40:48.817Z,81.83
2018-11-23T03:43:17.175Z,83.87
2018-11-23T03:45:45.564Z,76.90
2018-11-23T03:48:14.024Z,80.97
2018-11-23T03:50:42.401Z,88.13
2018-11-23T03:53:10.830Z,77.27
2018-11-23T03:55:39.202Z,79.97
2018-11-23T03:58:07.593Z,75.53
2018-11-23T04:00:35.967Z,81.17
2018-11-23T04:03:04.568Z,81.37
2018-11-23T04:05:32.998Z,79.80
2018-11-23T04:08:01.429Z,76.70
2018-11-23T04:10:29.825Z,80.87
2018-11-23T04:12:58.220Z,69.93
2018-11-23T04:15:26.690Z,73.10
2018-11-23T04:17:55.092Z,70.63
2018-11-23T04:20:23.478Z,82.40
2018-11-23T04:22:51.913Z,74.70
2018-11-23T04:25:20.325Z,79.20
2018-11-23T04:27:49.009Z,77.67
2018-11-23T04:30:17.961Z,80.00
2018-11-23T04:32:47.334Z,72.03
2018-11-23T04:35:16.961Z,68.40
2018-11-23T04:37:46.061Z,77.13
2018-11-23T04:40:15.261Z,76.70
2018-11-23T04:42:43.922Z,70.10
2018-11-23T04:45:12.710Z,85.87
2018-11-23T04:47:41.366Z,84.87
2018-11-23T04:50:11.280Z,80.73
2018-11-23T04:52:39.603Z,81.53
2018-11-23T04:55:08.696Z,71.57
2018-11-23T04:57:37.058Z,67.17
2018-11-23T05:00:08.132Z,73.53
2018-11-23T05:02:36.544Z,80.03
2018-11-23T05:05:06.459Z,77.97
2018-11-23T05:07:35.090Z,81.60
2018-11-23T05:10:03.655Z,65.57
2018-11-23T05:12:32.058Z,75.70
2018-11-23T05:15:00.497Z,79.40
2018-11-23T05:17:28.882Z,67.47
2018-11-23T05:19:57.288Z,77.87
2018-11-23T05:22:25.663Z,71.23
2018-11-23T05:24:54.096Z,67.30
2018-11-23T05:27:22.480Z,75.97
2018-11-23T05:29:51.100Z,77.47
2018-11-23T05:32:19.488Z,74.80
2018-11-23T05:34:47.891Z,76.30
2018-11-23T05:37:17.063Z,81.23
2018-11-23T05:39:45.466Z,69.03
2018-11-23T05:42:13.911Z,77.27
2018-11-23T05:44:42.376Z,65.67
2018-11-23T05:47:10.806Z,72.50
2018-11-23T05:49:39.301Z,73.60
2018-11-23T05:52:07.658Z,68.80
2018-11-23T05:54:36.090Z,78.53
2018-11-23T05:57:04.855Z,77.37
2018-11-23T05:59:33.238Z,73.70
2018-11-23T06:02:01.690Z,71.33
2018-11-23T06:04:30.045Z,72.97
2018-11-23T06:06:58.460Z,69.77
2018-11-23T06:09:26.848Z,69.87
2018-11-23T06:11:55.278Z,63.50
2018-11-23T06:14:23.658Z,76.60
2018-11-23T06:16:52.055Z,66.63
2018-11-23T06:19:20.460Z,61.83
2018-11-23T06:21:48.919Z,70.20
2018-11-23T06:24:17.341Z,66.33
2018-11-23T06:26:45.969Z,69.37
2018-11-23T06:29:14.372Z,65.77
2018-11-23T06:31:42.752Z,69.10
2018-11-23T06:34:11.167Z,70.30
2018-11-23T06:36:39.518Z,69.23
2018-11-23T06:39:08.866Z,56.03
2018-11-23T06:41:37.312Z,63.83
2018-11-23T06:44:09.753Z,69.13
2018-11-23T06:46:38.149Z,60.60
2018-11-23T06:49:06.662Z,69.23
2018-11-23T06:51:35.092Z,62.77
2018-11-23T06:54:03.523Z,70.23
2018-11-23T06:56:31.944Z,65.17
2018-11-23T06:59:00.315Z,66.17
2018-11-23T07:01:28.721Z,61.47
2018-11-23T07:03:57.137Z,63.93
2018-11-23T07:06:25.564Z,61.93
2018-11-23T07:08:53.946Z,63.33
2018-11-23T07:11:22.441Z,61.20
2018-11-23T07:13:50.845Z,63.80
2018-11-23T07:16:19.245Z,59.43
2018-11-23T07:18:47.789Z,60.07
2018-11-23T07:21:21.367Z,54.77
2018-11-23T07:23:44.639Z,55.43
2018-11-23T07:26:13.042Z,61.40
2018-11-23T07:28:41.465Z,59.27
2018-11-23T07:31:09.912Z,62.03
2018-11-23T07:33:38.361Z,59.33
2018-11-23T07:36:06.789Z,53.33
2018-11-23T07:38:35.224Z,51.70
2018-11-23T07:41:14.767Z,47.27
2018-11-23T07:43:43.229Z,46.17
2018-11-23T07:46:11.644Z,48.17
2018-11-23T07:48:40.306Z,49.23
2018-11-23T07:51:08.701Z,49.73
2018-11-23T07:53:37.153Z,49.47
2018-11-23T07:56:05.645Z,43.90
2018-11-23T07:58:34.024Z,45.67
2018-11-23T08:01:02.454Z,45.23
2018-11-23T08:03:30.929Z,44.80
2018-11-23T08:05:59.312Z,45.03
2018-11-23T08:08:27.696Z,45.00
2018-11-23T08:10:55.303Z,44.27
2018-11-23T08:13:23.705Z,37.03
2018-11-23T08:15:52.178Z,43.83
2018-11-23T08:18:20.797Z,41.33
2018-11-23T08:20:49.149Z,42.03
2018-11-23T08:23:17.553Z,43.47
2018-11-23T08:25:46.013Z,39.70
2018-11-23T08:28:14.464Z,35.23
2018-11-23T08:30:42.844Z,36.40
2018-11-23T08:33:11.223Z,36.63
2018-11-23T08:35:39.624Z,32.87
2018-11-23T08:38:08.039Z,33.07
2018-11-23T08:40:36.538Z,33.37
2018-11-23T08:43:05.022Z,37.73
2018-11-23T08:45:33.424Z,35.00
2018-11-23T08:48:01.962Z,35.00
2018-11-23T08:50:31.074Z,37.23
2018-11-23T08:52:59.676Z,36.70
2018-11-23T08:55:28.350Z,29.10
2018-11-23T08:57:56.756Z,30.37
2018-11-23T09:00:26.345Z,32.50
2018-11-23T09:02:57.301Z,34.17
2018-11-23T09:05:25.680Z,31.57
2018-11-23T09:07:55.255Z,29.77
2018-11-23T09:10:25.089Z,28.73
2018-11-23T09:12:56.049Z,27.43
2018-11-23T09:15:24.524Z,29.10
2018-11-23T09:17:53.128Z,26.70
2018-11-23T09:20:21.568Z,26.30
2018-11-23T09:22:50.017Z,25.50
2018-11-23T09:25:19.782Z,23.67
2018-11-23T09:27:48.201Z,22.17
2018-11-23T09:30:18.798Z,22.10
2018-11-23T09:32:47.881Z,21.63
2018-11-23T09:35:16.365Z,25.70
2018-11-23T09:37:45.243Z,24.63
2018-11-23T09:40:18.569Z,21.90
2018-11-23T09:42:47.061Z,28.67
2018-11-23T09:45:19.402Z,21.53
2018-11-23T09:47:49.104Z,20.87
2018-11-23T09:50:18.822Z,23.20
2018-11-23T09:52:48.307Z,21.40
2018-11-23T09:55:17.028Z,25.70
2018-11-23T09:57:45.412Z,20.90
2018-11-23T10:00:18.922Z,22.13
2018-11-23T10:02:48.281Z,23.23
2018-11-23T10:05:17.284Z,18.33
2018-11-23T10:07:47.016Z,18.83
2018-11-23T10:10:16.410Z,18.90
2018-11-23T10:12:45.275Z,13.80
2018-11-23T10:15:15.036Z,11.70
2018-11-23T10:17:43.573Z,14.30
2018-11-23T10:20:16.464Z,12.83
2018-11-23T10:22:45.243Z,14.10
2018-11-23T10:25:16.882Z,16.27
2018-11-23T10:27:45.601Z,14.87
2018-11-23T10:30:16.546Z,11.63
2018-11-23T10:32:45.815Z,12.90
2018-11-23T10:35:14.288Z,13.50
2018-11-23T10:37:43.605Z,12.23
2018-11-23T10:40:15.247Z,12.37
2018-11-23T10:42:43.944Z,12.27
2018-11-23T10:45:14.401Z,15.07
2018-11-23T10:47:42.890Z,12.03
2018-11-23T10:50:14.609Z,27.20
2018-11-23T10:52:43.082Z,22.80
2018-11-23T10:55:14.682Z,18.23
2018-11-23T10:57:43.171Z,14.30
2018-11-23T11:00:19.838Z,15.80
2018-11-23T11:02:53.761Z,13.87
2018-11-23T11:05:27.556Z,12.60
2018-11-23T11:07:57.393Z,13.27
2018-11-23T11:10:25.909Z,11.53
2018-11-23T11:12:54.441Z,14.23
2018-11-23T11:15:23.001Z,13.10
2018-11-23T11:17:51.471Z,13.17
2018-11-23T11:20:20.265Z,15.30
2018-11-23T11:22:48.756Z,14.43
2018-11-23T11:25:17.164Z,14.30
2018-11-23T11:27:45.846Z,16.17
2018-11-23T11:30:16.205Z,21.03
2018-11-23T11:32:45.131Z,15.50
2018-11-23T11:35:13.819Z,16.53
2018-11-23T11:37:42.765Z,16.13
2018-11-23T11:40:13.599Z,14.93
2018-11-23T11:42:42.605Z,15.87
2018-11-23T11:45:13.281Z,20.73
2018-11-23T11:47:42.439Z,16.37
2018-11-23T11:50:11.724Z,14.30
2018-11-23T11:52:41.401Z,17.07
2018-11-23T11:55:12.005Z,15.43
2018-11-23T11:57:40.471Z,15.83
2018-11-23T12:00:11.437Z,23.17
2018-11-23T12:02:39.936Z,14.27
2018-11-23T12:05:09.818Z,15.77
2018-11-23T12:07:38.332Z,15.20
2018-11-23T12:10:09.146Z,16.80
2018-11-23T12:12:37.722Z,20.07
2018-11-23T12:15:07.388Z,17.20
2018-11-23T12:17:35.798Z,18.17
2018-11-23T12:20:06.018Z,17.10
2018-11-23T12:22:34.522Z,17.70
2018-11-23T12:25:02.950Z,16.60
2018-11-23T12:27:31.565Z,19.07
2018-11-23T12:29:59.996Z,18.43
2018-11-23T12:32:28.414Z,16.90
2018-11-23T12:34:56.828Z,16.70
2018-11-23T12:37:25.191Z,18.23
2018-11-23T12:39:53.964Z,16.50
2018-11-23T12:42:22.668Z,17.13
2018-11-23T12:44:51.167Z,17.47
2018-11-23T12:47:19.598Z,16.73
2018-11-23T12:49:48.060Z,19.17
2018-11-23T12:52:16.463Z,20.03
2018-11-23T12:54:44.913Z,18.83
2018-11-23T12:57:13.402Z,16.20
2018-11-23T12:59:41.788Z,20.37
2018-11-23T13:02:10.184Z,29.17
2018-11-23T13:04:38.552Z,30.53
2018-11-23T13:07:07.124Z,26.50
2018-11-23T13:09:35.530Z,18.90
2018-11-23T13:12:04.102Z,21.73
2018-11-23T13:14:32.497Z,21.90
2018-11-23T13:17:00.907Z,18.57
2018-11-23T13:19:29.350Z,17.43
2018-11-23T13:21:57.734Z,16.87
2018-11-23T13:24:26.113Z,16.43
2018-11-23T13:26:55.049Z,17.30
2018-11-23T13:29:23.053Z,18.60
2018-11-23T13:31:51.462Z,18.30
2018-11-23T13:34:19.895Z,17.33
2018-11-23T13:36:48.335Z,19.53
2018-11-23T13:39:16.751Z,18.07
2018-11-23T13:41:45.135Z,23.23
2018-11-23T13:44:13.524Z,17.33
2018-11-23T13:46:41.948Z,18.13
2018-11-23T13:49:10.407Z,20.63
2018-11-23T13:51:38.837Z,17.67
2018-11-23T13:54:07.309Z,21.13
2018-11-23T13:56:35.887Z,17.13
2018-11-23T13:59:04.619Z,21.33
2018-11-23T14:01:33.080Z,20.87
2018-11-23T14:04:01.496Z,21.67
2018-11-23T14:06:29.910Z,26.13
2018-11-23T14:08:58.328Z,20.20
2018-11-23T14:11:26.687Z,20.03
2018-11-23T14:13:55.115Z,23.23
2018-11-23T14:16:23.538Z,21.30
2018-11-23T14:18:51.936Z,17.57
2018-11-23T14:21:20.335Z,21.43
2018-11-23T14:23:48.754Z,21.97
2018-11-23T14:26:17.177Z,23.63
2018-11-23T14:28:45.604Z,17.40
2018-11-23T14:31:14.040Z,20.60
2018-11-23T14:33:42.434Z,20.70
2018-11-23T14:36:10.796Z,20.33
2018-11-23T14:38:39.217Z,24.00
2018-11-23T14:41:07.641Z,17.80
2018-11-23T14:43:36.081Z,21.67
2018-11-23T14:46:04.573Z,21.17
2018-11-23T14:48:32.996Z,19.93
2018-11-23T14:51:01.445Z,17.53
2018-11-23T14:53:29.846Z,22.00
2018-11-23T14:55:58.310Z,22.70
2018-11-23T14:58:26.704Z,20.73
2018-11-23T15:00:55.478Z,23.70
2018-11-23T15:03:23.848Z,21.37
2018-11-23T15:05:52.231Z,19.40
2018-11-23T15:08:20.643Z,22.27
2018-11-23T15:10:49.065Z,20.20
2018-11-23T15:13:17.472Z,22.03
2018-11-23T15:15:45.845Z,21.73
2018-11-23T15:18:14.244Z,23.97
2018-11-23T15:20:44.672Z,25.93
2018-11-23T15:23:16.202Z,26.20
2018-11-23T15:25:44.644Z,22.93
2018-11-23T15:28:13.765Z,20.60
2018-11-23T15:30:42.967Z,17.77
2018-11-23T15:33:12.889Z,23.43
2018-11-23T15:35:41.969Z,24.63
2018-11-23T15:38:14.102Z,21.37
2018-11-23T15:40:42.571Z,21.83
2018-11-23T15:43:12.309Z,17.07
2018-11-23T15:45:40.733Z,17.13
2018-11-23T15:48:09.676Z,21.47
2018-11-23T15:50:39.475Z,18.23
2018-11-23T15:53:09.361Z,22.30
2018-11-23T15:55:38.646Z,25.50
2018-11-23T15:58:09.840Z,23.20
2018-11-23T16:00:39.373Z,21.93
2018-11-23T16:03:09.285Z,22.43
2018-11-23T16:05:37.973Z,30.00
2018-11-23T16:08:10.818Z,24.80
2018-11-23T16:10:39.673Z,33.90
2018-11-23T16:13:11.446Z,59.33
2018-11-23T16:15:37.842Z,33.43
2018-11-23T16:18:06.685Z,44.70
2018-11-23T16:20:37.476Z,37.40
2018-11-23T16:23:07.571Z,34.67
2018-11-23T16:25:36.011Z,26.57
2018-11-23T16:28:05.662Z,30.67
2018-11-23T16:30:35.601Z,25.20
2018-11-23T16:33:05.213Z,26.33
2018-11-23T16:35:35.631Z,26.80
2018-11-23T16:38:07.295Z,24.17
2018-11-23T16:40:37.307Z,30.20
2018-11-23T16:43:07.390Z,24.73
2018-11-23T16:45:36.641Z,28.47
2018-11-23T16:48:06.526Z,22.40
2018-11-23T16:50:35.040Z,25.60
2018-11-23T16:53:03.912Z,26.77
2018-11-23T16:55:32.434Z,25.33
2018-11-23T16:58:03.091Z,25.00
2018-11-23T17:00:32.978Z,25.27
2018-11-23T17:03:02.958Z,25.13
2018-11-23T17:05:33.141Z,30.97
2018-11-23T17:08:01.593Z,28.83
2018-11-23T17:10:29.994Z,24.77
2018-11-23T17:12:58.507Z,28.93
2018-11-23T17:15:28.011Z,29.30
2018-11-23T17:17:56.667Z,28.40
2018-11-23T17:20:26.502Z,27.23
2018-11-23T17:22:56.001Z,27.53
2018-11-23T17:25:25.332Z,29.30
2018-11-23T17:27:54.557Z,28.03
2018-11-23T17:30:24.637Z,29.23
2018-11-23T17:32:53.295Z,28.33
2018-11-23T17:35:21.945Z,30.67
2018-11-23T17:37:50.673Z,27.90
2018-11-23T17:40:20.399Z,30.90
2018-11-23T17:42:48.844Z,32.13
2018-11-23T17:45:19.022Z,31.27
2018-11-23T17:47:47.670Z,34.40
2018-11-23T17:50:17.457Z,30.40
2018-11-23T17:52:46.217Z,36.03
2018-11-23T17:55:15.078Z,35.87
2018-11-23T17:57:44.672Z,34.17
2018-11-23T18:00:15.942Z,34.80
2018-11-23T18:02:44.835Z,35.60
2018-11-23T18:05:14.368Z,31.30
2018-11-23T18:07:42.885Z,34.83
2018-11-23T18:10:14.781Z,44.13
2018-11-23T18:12:43.573Z,42.53
2018-11-23T18:15:15.265Z,37.77
2018-11-23T18:17:44.018Z,34.13
2018-11-23T18:20:13.835Z,38.77
2018-11-23T18:22:42.553Z,39.17
2018-11-23T18:25:14.383Z,37.20
2018-11-23T18:27:43.741Z,33.43
2018-11-23T18:30:12.829Z,39.10
2018-11-23T18:32:41.285Z,37.90
2018-11-23T18:35:11.124Z,38.10
2018-11-23T18:37:39.642Z,36.47
2018-11-23T18:40:10.198Z,44.73
2018-11-23T18:42:38.741Z,44.23
2018-11-23T18:45:09.118Z,53.33
2018-11-23T18:47:37.700Z,45.37
2018-11-23T18:50:08.263Z,38.20
2018-11-23T18:52:36.784Z,38.40
2018-11-23T18:55:05.548Z,44.23
2018-11-23T18:57:34.004Z,38.47
2018-11-23T19:00:02.435Z,38.27
2018-11-23T19:02:30.906Z,41.40
2018-11-23T19:04:59.376Z,45.70
2018-11-23T19:07:27.996Z,34.90
2018-11-23T19:09:56.400Z,44.83
2018-11-23T19:12:24.825Z,34.63
2018-11-23T19:14:53.292Z,36.47
2018-11-23T19:17:21.836Z,41.50
2018-11-23T19:19:50.239Z,41.87
2018-11-23T19:22:18.732Z,49.77
2018-11-23T19:24:47.135Z,51.30
2018-11-23T19:27:15.662Z,50.77
2018-11-23T19:29:44.183Z,55.40
2018-11-23T19:32:12.747Z,65.23
2018-11-23T19:34:41.242Z,52.60
2018-11-23T19:37:09.648Z,56.67
2018-11-23T19:39:38.098Z,49.83
2018-11-23T19:42:06.535Z,49.60
2018-11-23T19:44:34.973Z,48.83
2018-11-23T19:47:03.357Z,46.87
2018-11-23T19:49:31.755Z,46.23
2018-11-23T19:52:00.209Z,40.60
2018-11-23T19:54:28.673Z,52.37
2018-11-23T19:56:57.393Z,60.13
2018-11-23T19:59:25.857Z,43.93
2018-11-23T20:01:54.314Z,49.73
2018-11-23T20:04:22.794Z,47.57
2018-11-23T20:06:51.276Z,58.03
2018-11-23T20:09:19.742Z,51.43
2018-11-23T20:11:48.221Z,54.67
2018-11-23T20:14:16.677Z,50.30
2018-11-23T20:16:45.047Z,48.87
2018-11-23T20:19:13.593Z,51.53
2018-11-23T20:21:42.032Z,51.50
2018-11-23T20:24:10.480Z,49.40
2018-11-23T20:26:39.127Z,53.27
2018-11-23T20:29:07.578Z,47.77
2018-11-23T20:31:36.041Z,53.83
2018-11-23T20:34:04.523Z,51.40
2018-11-23T20:36:33.047Z,55.87
2018-11-23T20:39:01.490Z,50.23
2018-11-23T20:41:30.333Z,54.67
2018-11-23T20:43:58.780Z,54.53
2018-11-23T20:46:27.294Z,51.17
2018-11-23T20:48:55.738Z,53.93
2018-11-23T20:51:24.193Z,55.67
2018-11-23T20:53:52.645Z,50.63
2018-11-23T20:56:21.125Z,48.30
2018-11-23T20:59:05.248Z,46.90
2018-11-23T21:01:33.944Z,53.10
2018-11-23T21:04:04.167Z,56.40
2018-11-23T21:06:32.969Z,54.37
2018-11-23T21:09:01.383Z,49.70
2018-11-23T21:11:39.908Z,54.40
2018-11-23T21:14:08.549Z,51.17
2018-11-23T21:16:37.109Z,51.07
2018-11-23T21:19:05.561Z,54.27
2018-11-23T21:21:33.999Z,51.77
2018-11-23T21:24:07.927Z,48.37
2018-11-23T21:26:46.283Z,53.23
2018-11-23T21:29:20.146Z,62.23
2018-11-23T21:31:53.715Z,53.53
2018-11-23T21:34:37.737Z,45.87
2018-11-23T21:37:13.085Z,47.27
2018-11-23T21:39:41.672Z,53.40
2018-11-23T21:42:10.153Z,49.83
2018-11-23T21:44:38.613Z,39.83
2018-11-23T21:47:07.051Z,49.20
2018-11-23T21:49:35.466Z,50.37
2018-11-23T21:52:04.090Z,46.97
2018-11-23T21:54:32.475Z,45.43
2018-11-23T21:57:00.991Z,54.17
2018-11-23T21:59:29.378Z,46.57
2018-11-23T22:01:57.809Z,51.73
2018-11-23T22:04:26.285Z,46.10
2018-11-23T22:06:54.794Z,44.50
2018-11-23T22:09:23.167Z,44.00
2018-11-23T22:11:52.511Z,48.33
2018-11-23T22:14:20.092Z,48.60
2018-11-23T22:16:49.547Z,42.43
2018-11-23T22:19:18.025Z,46.73
2018-11-23T22:21:46.481Z,48.63
2018-11-23T22:24:14.997Z,49.03
2018-11-23T22:26:43.715Z,53.60
2018-11-23T22:29:12.246Z,51.27
2018-11-23T22:31:40.648Z,45.87
2018-11-23T22:34:15.277Z,47.40
2018-11-23T22:36:43.697Z,48.93
2018-11-23T22:39:12.180Z,50.80
2018-11-23T22:41:47.020Z,46.43
2018-11-23T22:44:15.454Z,48.63
2018-11-23T22:46:43.887Z,49.00
2018-11-23T22:49:12.272Z,44.67
2018-11-23T22:51:40.757Z,43.73
2018-11-23T22:54:09.218Z,52.97
2018-11-23T22:56:38.544Z,53.17
2018-11-23T22:59:06.988Z,50.37
2018-11-23T23:01:35.405Z,51.27
2018-11-23T23:04:03.864Z,51.70
2018-11-23T23:06:32.280Z,46.90
2018-11-23T23:09:00.962Z,43.93
2018-11-23T23:11:29.420Z,41.53
2018-11-23T23:13:57.865Z,54.00
2018-11-23T23:16:26.354Z,53.83
2018-11-23T23:18:54.728Z,48.07
2018-11-23T23:21:23.115Z,44.33
2018-11-23T23:23:51.500Z,43.17
2018-11-23T23:26:19.870Z,49.83
2018-11-23T23:28:48.261Z,46.90
2018-11-23T23:31:16.636Z,54.03
2018-11-23T23:33:44.996Z,50.20
2018-11-23T23:36:13.389Z,49.00
2018-11-23T23:38:42.373Z,46.43
2018-11-23T23:41:11.425Z,48.30
2018-11-23T23:43:39.907Z,50.93
2018-11-23T23:46:08.274Z,49.80
2018-11-23T23:48:36.697Z,48.13
2018-11-23T23:51:06.780Z,47.17
2018-11-23T23:53:35.245Z,43.60
2018-11-23T23:56:03.603Z,53.70
2018-11-23T23:58:32.045Z,47.93
